Time;durP1;ratioP1;P1;durP2;ratioP2;P2;SDS_P1;SDS_P2;PMS_P1;PMS_P2;Temp;Humidity;BMP_temperature;BMP_pressure;BME280_temperature;BME280_humidity;BME280_pressure;Samples;Min_cycle;Max_cycle;Signal;HPM_P1;HPM_P2
2022/12/30 00:01:08;;;;;;;4.40;1.50;;;;;;;18.92;39.97;100921.94;4982113;28;20066;-67
2022/12/30 00:03:35;;;;;;;7.53;1.70;;;;;;;18.91;40.14;100922.06;4995379;28;20038;-67
2022/12/30 00:06:01;;;;;;;5.20;1.27;;;;;;;18.92;39.93;100929.03;4981626;28;20038;-67
2022/12/30 00:11:10;;;;;;;5.47;1.60;;;;;;;18.89;39.83;100929.28;4993448;28;20406;-67
2022/12/30 00:33:50;;;;;;;6.00;1.80;;;;;;;18.78;39.69;100941.53;4976069;28;20085;-68
2022/12/30 00:36:15;;;;;;;3.92;1.30;;;;;;;18.76;39.73;100945.28;4989257;28;20057;-68
2022/12/30 00:38:41;;;;;;;4.00;1.33;;;;;;;18.73;39.79;100942.88;4985906;28;20125;-68
2022/12/30 00:43:50;;;;;;;6.07;1.60;;;;;;;18.75;39.75;100947.06;4998617;28;20087;-67
2022/12/30 00:46:15;;;;;;;4.70;1.42;;;;;;;18.72;39.62;100957.03;4989606;28;20030;-67
2022/12/30 00:56:53;;;;;;;6.50;1.80;;;;;;;18.70;39.75;100957.16;5002628;28;20036;-67
2022/12/30 00:59:18;;;;;;;4.88;1.85;;;;;;;18.71;39.64;100955.34;4994805;28;20042;-70
2022/12/30 01:01:43;;;;;;;5.13;1.70;;;;;;;18.69;39.69;100950.19;4990945;28;20038;-68
2022/12/30 01:04:09;;;;;;;5.05;1.77;;;;;;;18.66;39.92;100950.47;4994673;28;20302;-70
2022/12/30 01:06:37;;;;;;;4.28;1.30;;;;;;;18.66;39.63;100958.41;5001586;28;20482;-67
2022/12/30 01:09:02;;;;;;;5.40;1.63;;;;;;;18.62;39.68;100951.69;4993919;28;20068;-68
2022/12/30 01:11:27;;;;;;;5.03;1.73;;;;;;;18.61;39.73;100955.28;4998115;28;20108;-67
2022/12/30 01:13:53;;;;;;;6.55;1.70;;;;;;;18.63;39.60;100962.13;4998392;28;20049;-71
2022/12/30 01:16:18;;;;;;;5.93;1.85;;;;;;;18.63;39.59;100966.56;4992842;28;20560;-70
2022/12/30 01:18:44;;;;;;;4.55;1.35;;;;;;;18.60;39.55;100961.53;5004636;28;20124;-67
2022/12/30 01:21:10;;;;;;;4.68;1.70;;;;;;;18.60;39.61;100967.66;5004167;28;20406;-70
2022/12/30 01:23:35;;;;;;;4.45;1.45;;;;;;;18.57;39.41;100957.34;4984724;28;20038;-67
2022/12/30 01:26:02;;;;;;;4.90;1.50;;;;;;;18.60;39.51;100957.09;4984712;28;20042;-70
2022/12/30 01:28:32;;;;;;;5.05;1.45;;;;;;;18.58;39.29;100961.66;4991322;28;20045;-68
2022/12/30 01:30:59;;;;;;;4.45;1.58;;;;;;;18.56;39.69;100968.84;4987521;28;20034;-68
2022/12/30 01:33:25;;;;;;;5.00;1.50;;;;;;;18.57;39.46;100967.06;4993736;28;20064;-67
2022/12/30 01:35:50;;;;;;;5.60;1.52;;;;;;;18.55;39.28;100971.59;5003881;28;20578;-67
2022/12/30 01:38:16;;;;;;;4.38;1.50;;;;;;;18.56;39.46;100973.28;4997712;28;20037;-70
2022/12/30 01:40:42;;;;;;;7.18;1.80;;;;;;;18.53;39.35;100974.38;5003839;28;20029;-69
2022/12/30 01:43:13;;;;;;;5.75;1.90;;;;;;;18.53;39.29;100984.94;5003860;28;20512;-71
2022/12/30 01:45:39;;;;;;;4.53;1.58;;;;;;;18.53;39.30;100979.66;4984678;28;20117;-70
2022/12/30 01:48:06;;;;;;;5.07;1.30;;;;;;;18.54;39.38;100981.34;4998342;28;20141;-67
2022/12/30 01:50:49;;;;;;;4.57;1.45;;;;;;;18.51;39.67;100975.47;4994104;28;20034;-68
2022/12/30 01:53:27;;;;;;;4.38;1.60;;;;;;;18.52;39.74;100990.31;4999300;28;20026;-67
2022/12/30 01:56:00;;;;;;;7.10;2.03;;;;;;;18.51;39.53;101000.06;5000668;28;20035;-68
2022/12/30 01:58:37;;;;;;;6.38;1.50;;;;;;;18.48;39.59;100985.31;4986991;28;20390;-69
2022/12/30 02:01:03;;;;;;;5.13;1.40;;;;;;;18.51;39.46;100996.59;4993608;28;20475;-69
2022/12/30 02:03:35;;;;;;;5.32;1.45;;;;;;;18.51;39.51;100999.22;4983834;28;20045;-66
2022/12/30 02:06:01;;;;;;;6.45;1.40;;;;;;;18.47;39.24;100998.66;4984339;28;20034;-67
2022/12/30 02:08:27;;;;;;;4.97;1.50;;;;;;;18.49;39.47;100999.34;4984019;28;20036;-67
2022/12/30 02:10:55;;;;;;;6.68;2.10;;;;;;;18.45;39.24;100985.56;4989818;28;20033;-68
2022/12/30 02:13:21;;;;;;;4.20;1.30;;;;;;;18.46;39.58;100991.69;4992675;28;20046;-71
2022/12/30 02:16:05;;;;;;;5.05;1.60;;;;;;;18.47;39.44;100988.91;4998289;28;20479;-70
2022/12/30 02:19:03;;;;;;;6.40;1.60;;;;;;;18.47;39.24;100978.34;4988940;28;20065;-67
2022/12/30 02:21:59;;;;;;;6.10;1.55;;;;;;;18.46;39.43;100974.03;4995269;28;20038;-69
2022/12/30 02:24:43;;;;;;;7.20;1.70;;;;;;;18.46;39.28;100975.84;4998451;28;20037;-68
2022/12/30 02:27:30;;;;;;;4.53;1.53;;;;;;;18.43;39.35;100973.44;4984793;28;20038;-67
2022/12/30 02:30:22;;;;;;;6.13;1.73;;;;;;;18.45;39.54;100969.75;4983690;28;20109;-71
2022/12/30 02:33:06;;;;;;;4.93;1.88;;;;;;;18.41;39.32;100956.91;4993975;28;20026;-69
2022/12/30 02:35:59;;;;;;;6.70;1.88;;;;;;;18.42;39.31;100956.78;4997655;28;20046;-68
2022/12/30 02:38:46;;;;;;;5.88;1.70;;;;;;;18.41;39.14;100949.81;4992961;28;20087;-67
2022/12/30 02:44:36;;;;;;;5.95;1.58;;;;;;;18.34;39.24;100948.66;4994096;28;20054;-68
2022/12/30 02:47:40;;;;;;;6.90;1.67;;;;;;;18.39;39.18;100946.47;4985833;28;20402;-69
2022/12/30 02:53:08;;;;;;;5.00;1.58;;;;;;;18.33;38.99;100941.69;5002397;28;20037;-67
2022/12/30 02:55:33;;;;;;;6.53;1.67;;;;;;;18.34;39.27;100930.19;5002279;28;20034;-67
2022/12/30 02:57:59;;;;;;;4.32;1.38;;;;;;;18.33;39.42;100931.13;4995049;28;20046;-68
2022/12/30 03:03:58;;;;;;;3.88;1.20;;;;;;;18.31;39.23;100919.88;5002374;28;20429;-69
2022/12/30 03:06:39;;;;;;;6.15;1.90;;;;;;;18.36;39.24;100919.47;4986012;28;20062;-68
2022/12/30 03:09:10;;;;;;;5.32;1.30;;;;;;;18.35;39.31;100920.47;4983791;28;21192;-67
2022/12/30 03:12:07;;;;;;;4.47;1.40;;;;;;;18.34;39.06;100921.41;5002647;28;20041;-71
2022/12/30 03:14:48;;;;;;;6.13;1.63;;;;;;;18.29;39.33;100917.38;4991379;28;20042;-67
2022/12/30 03:17:19;;;;;;;5.15;1.65;;;;;;;18.29;39.23;100921.78;4986262;28;20034;-67
2022/12/30 03:19:49;;;;;;;6.97;1.90;;;;;;;18.31;39.23;100931.25;4996193;28;20062;-67
2022/12/30 03:27:49;;;;;;;3.95;1.27;;;;;;;18.28;38.96;100918.31;4982691;28;20037;-69
2022/12/30 03:30:16;;;;;;;5.90;1.40;;;;;;;18.26;39.31;100914.97;4996850;28;20041;-71
2022/12/30 03:32:42;;;;;;;5.40;1.55;;;;;;;18.27;39.10;100913.16;5002090;28;20128;-68
2022/12/30 03:35:08;;;;;;;5.05;1.58;;;;;;;18.29;39.10;100913.88;4991754;28;20136;-67
2022/12/30 03:37:48;;;;;;;4.68;1.42;;;;;;;18.25;39.05;100909.81;4990413;28;20038;-67
2022/12/30 03:40:24;;;;;;;4.25;1.35;;;;;;;18.26;38.87;100911.47;4984137;28;20038;-67
2022/12/30 03:42:51;;;;;;;4.75;1.50;;;;;;;18.23;38.72;100901.16;4982810;28;20155;-69
2022/12/30 03:45:18;;;;;;;6.25;1.38;;;;;;;18.23;39.03;100907.31;4982277;28;20065;-69
2022/12/30 03:47:43;;;;;;;5.85;1.33;;;;;;;18.22;38.99;100905.63;4988337;28;20395;-70
2022/12/30 03:50:09;;;;;;;6.45;1.58;;;;;;;18.23;39.10;100903.81;4992632;28;20035;-66
2022/12/30 03:52:34;;;;;;;5.00;1.60;;;;;;;18.24;39.23;100916.88;4982477;28;20113;-67
2022/12/30 03:54:59;;;;;;;5.68;2.15;;;;;;;18.22;39.14;100921.44;4984434;28;20030;-67
2022/12/30 03:57:24;;;;;;;4.60;1.30;;;;;;;18.23;39.24;100917.84;4988843;28;20040;-66
2022/12/30 03:59:50;;;;;;;5.30;1.63;;;;;;;18.20;38.88;100906.69;4998824;28;20038;-68
2022/12/30 04:02:15;;;;;;;7.05;1.60;;;;;;;18.22;39.03;100918.81;4983983;28;20030;-67
2022/12/30 04:04:40;;;;;;;4.97;1.42;;;;;;;18.18;39.02;100920.00;4989265;28;20038;-69
2022/12/30 04:07:06;;;;;;;5.90;1.60;;;;;;;18.22;38.83;100928.53;4985623;28;20257;-67
2022/12/30 04:09:31;;;;;;;4.50;1.30;;;;;;;18.21;38.91;100926.84;4996056;28;20479;-67
2022/12/30 04:11:57;;;;;;;5.10;1.60;;;;;;;18.21;39.06;100929.47;4983045;28;20038;-67
2022/12/30 04:14:22;;;;;;;4.68;1.63;;;;;;;18.19;38.93;100919.06;4982985;28;20760;-67
2022/12/30 04:16:48;;;;;;;4.68;1.40;;;;;;;18.20;38.72;100927.78;4992698;28;20399;-67
2022/12/30 04:19:13;;;;;;;5.55;1.58;;;;;;;18.19;38.73;100939.31;4991512;28;20038;-67
2022/12/30 04:21:38;;;;;;;6.60;1.70;;;;;;;18.15;38.65;100936.09;4993263;28;20220;-68
2022/12/30 04:24:04;;;;;;;4.43;1.30;;;;;;;18.16;38.79;100934.28;4996114;28;20034;-68
2022/12/30 04:26:30;;;;;;;5.50;1.73;;;;;;;18.15;38.87;100941.38;4994132;28;20050;-67
2022/12/30 04:28:55;;;;;;;4.75;1.40;;;;;;;18.17;38.92;100933.34;4997626;28;20033;-68
2022/12/30 04:31:20;;;;;;;4.93;1.42;;;;;;;18.16;38.69;100931.66;4997720;28;20364;-68
2022/12/30 04:33:52;;;;;;;7.05;2.00;;;;;;;18.11;38.89;100919.66;4994404;28;20208;-68
2022/12/30 04:36:19;;;;;;;5.22;1.60;;;;;;;18.12;38.63;100921.34;4995057;28;20042;-66
2022/12/30 04:38:44;;;;;;;6.03;1.40;;;;;;;18.11;38.95;100917.03;4991902;28;20180;-67
2022/12/30 04:41:10;;;;;;;4.35;1.30;;;;;;;18.13;38.71;100920.41;4996769;28;20948;-71
2022/12/30 04:43:36;;;;;;;6.22;1.67;;;;;;;18.13;38.73;100919.53;4991334;28;20038;-68
2022/12/30 04:46:01;;;;;;;5.75;1.52;;;;;;;18.12;38.58;100921.34;4994486;28;20037;-67
2022/12/30 04:48:26;;;;;;;5.38;1.52;;;;;;;18.09;38.79;100915.50;4993368;28;20030;-66
2022/12/30 04:50:52;;;;;;;5.03;1.60;;;;;;;18.10;38.79;100915.38;4998202;28;20042;-66
2022/12/30 04:53:17;;;;;;;6.13;1.67;;;;;;;18.11;38.60;100921.47;4999652;28;20038;-67
2022/12/30 04:55:42;;;;;;;5.15;1.33;;;;;;;18.11;38.70;100926.75;4988210;28;20030;-66
2022/12/30 04:58:09;;;;;;;4.38;1.52;;;;;;;18.05;38.53;100920.16;4994581;28;20045;-66
2022/12/30 05:00:35;;;;;;;5.75;1.55;;;;;;;18.07;38.64;100910.34;4996154;28;20034;-68
2022/12/30 05:03:00;;;;;;;6.45;1.50;;;;;;;18.09;38.65;100918.13;4993046;28;20088;-70
2022/12/30 05:05:25;;;;;;;4.78;1.40;;;;;;;18.08;38.84;100916.44;4995762;28;20744;-68
2022/12/30 05:07:51;;;;;;;5.88;1.50;;;;;;;18.07;38.63;100906.84;4991829;28;20033;-66
2022/12/30 05:10:17;;;;;;;4.05;1.42;;;;;;;18.03;38.79;100911.53;4997395;28;20030;-68
2022/12/30 05:12:42;;;;;;;5.25;1.58;;;;;;;18.04;38.53;100905.31;4993088;28;20552;-67
2022/12/30 05:15:08;;;;;;;6.53;1.40;;;;;;;18.05;38.40;100901.69;4992871;28;20651;-67
2022/12/30 05:17:33;;;;;;;5.95;1.70;;;;;;;18.03;38.62;100898.34;4997410;28;20042;-66
2022/12/30 05:19:59;;;;;;;6.00;1.77;;;;;;;18.05;38.47;100899.03;4991671;28;20455;-67
2022/12/30 05:22:24;;;;;;;4.90;1.55;;;;;;;18.06;38.59;100905.19;4997780;28;20041;-67
2022/12/30 05:27:33;;;;;;;5.95;1.50;;;;;;;18.03;38.62;100897.50;4994815;28;20068;-67
2022/12/30 05:29:58;;;;;;;6.68;1.95;;;;;;;18.04;38.60;100897.38;4995767;28;20062;-68
2022/12/30 05:32:24;;;;;;;5.90;1.70;;;;;;;18.03;38.45;100893.06;4995154;28;20037;-68
2022/12/30 05:34:49;;;;;;;5.97;1.90;;;;;;;18.01;38.61;100897.63;4995248;28;20041;-68
2022/12/30 05:37:14;;;;;;;4.32;1.40;;;;;;;17.99;38.84;100891.66;4991833;28;20050;-70
2022/12/30 05:39:40;;;;;;;7.20;1.80;;;;;;;17.98;38.57;100900.50;4995028;28;20049;-68
2022/12/30 05:42:05;;;;;;;5.72;1.67;;;;;;;17.98;38.46;100895.25;4994411;28;20045;-68
2022/12/30 05:44:31;;;;;;;4.47;1.63;;;;;;;17.93;38.72;100887.69;4991792;28;20081;-67
2022/12/30 05:46:56;;;;;;;5.55;1.70;;;;;;;18.00;38.47;100895.94;4991962;28;20050;-68
2022/12/30 05:49:22;;;;;;;5.57;1.65;;;;;;;17.99;38.91;100902.19;4996761;28;20029;-69
2022/12/30 05:51:47;;;;;;;5.70;1.58;;;;;;;18.00;39.21;100897.75;4997180;28;20036;-68
2022/12/30 05:54:12;;;;;;;6.55;1.50;;;;;;;18.04;39.53;100905.31;4994486;28;20097;-67
2022/12/30 05:56:38;;;;;;;5.70;1.55;;;;;;;18.02;39.66;100890.56;4998279;28;20043;-67
2022/12/30 05:59:03;;;;;;;5.30;1.50;;;;;;;18.07;39.49;100891.88;4991641;28;20402;-68
2022/12/30 06:01:28;;;;;;;3.38;1.30;;;;;;;18.12;39.65;100902.88;5000631;28;20494;-67
2022/12/30 06:03:55;;;;;;;4.35;1.40;;;;;;;18.15;39.60;100906.22;4997595;28;20462;-69
2022/12/30 06:06:21;;;;;;;4.88;1.40;;;;;;;18.17;39.43;100893.78;4997445;28;20125;-67
2022/12/30 06:08:46;;;;;;;4.10;1.50;;;;;;;18.20;39.35;100889.09;4995341;28;20112;-67
2022/12/30 06:11:12;;;;;;;5.82;1.50;;;;;;;18.22;39.26;100894.25;4996357;28;20526;-66
2022/12/30 06:13:37;;;;;;;4.63;1.20;;;;;;;18.25;39.37;100881.63;5003753;28;20052;-67
2022/12/30 06:16:03;;;;;;;4.45;1.40;;;;;;;18.27;39.41;100878.88;5004398;28;20037;-67
2022/12/30 06:18:28;;;;;;;4.63;1.42;;;;;;;18.33;39.32;100880.19;4999329;28;20064;-67
2022/12/30 06:20:55;;;;;;;6.03;1.50;;;;;;;18.34;39.25;100873.91;4994168;28;20034;-66
2022/12/30 06:23:20;;;;;;;4.88;1.42;;;;;;;18.36;39.39;100872.00;4992864;28;20037;-68
2022/12/30 06:25:53;;;;;;;4.82;1.73;;;;;;;18.37;39.42;100858.66;5000331;28;20069;-66
2022/12/30 06:28:19;;;;;;;4.63;1.60;;;;;;;18.38;39.32;100863.00;4987209;28;20065;-66
2022/12/30 06:30:44;;;;;;;5.10;1.30;;;;;;;18.41;39.07;100859.28;4993409;28;20046;-71
2022/12/30 06:33:09;;;;;;;6.05;1.50;;;;;;;18.45;39.12;100860.69;4985498;28;20030;-67
2022/12/30 06:35:35;;;;;;;3.20;1.23;;;;;;;18.43;39.22;100852.88;4988299;28;20066;-69
2022/12/30 06:38:00;;;;;;;3.60;1.10;;;;;;;18.44;39.27;100851.94;5000395;28;20271;-67
2022/12/30 06:40:25;;;;;;;4.43;1.33;;;;;;;18.49;38.96;100852.38;4997835;28;20471;-67
2022/12/30 06:42:50;;;;;;;4.13;1.35;;;;;;;18.50;39.18;100837.41;4988602;28;20263;-68
2022/12/30 06:45:16;;;;;;;5.50;1.40;;;;;;;18.51;38.88;100846.16;4995991;28;20030;-71
2022/12/30 06:47:41;;;;;;;4.53;1.20;;;;;;;18.53;39.21;100836.31;4996265;28;20038;-69
2022/12/30 06:50:07;;;;;;;5.30;1.58;;;;;;;18.57;39.12;100838.56;4987590;28;20044;-67
2022/12/30 06:52:32;;;;;;;5.32;1.40;;;;;;;18.55;39.34;100829.09;4983340;28;20026;-70
2022/12/30 06:54:57;;;;;;;4.47;1.20;;;;;;;18.55;39.40;100819.38;4991668;28;20060;-68
2022/12/30 06:57:22;;;;;;;3.73;1.20;;;;;;;18.61;39.75;100820.66;4991692;28;20053;-69
2022/12/30 06:59:48;;;;;;;5.50;1.42;;;;;;;18.60;39.60;100811.91;4989403;28;20387;-66
2022/12/30 07:02:13;;;;;;;5.57;1.40;;;;;;;18.58;39.78;100794.53;4999372;28;20057;-68
2022/12/30 07:04:39;;;;;;;5.18;1.50;;;;;;;18.62;39.86;100806.50;4989016;28;20135;-70
2022/12/30 07:07:04;;;;;;;5.38;1.30;;;;;;;18.63;39.71;100797.63;5002459;28;20026;-67
2022/12/30 07:09:29;;;;;;;5.40;1.42;;;;;;;18.63;39.74;100795.81;5002992;28;20060;-67
2022/12/30 07:11:54;;;;;;;4.03;1.13;;;;;;;18.60;39.82;100782.88;4992189;28;20570;-71
2022/12/30 07:14:20;;;;;;;4.63;1.23;;;;;;;18.64;39.74;100775.53;4982887;28;20068;-67
2022/12/30 07:16:45;;;;;;;3.95;1.42;;;;;;;18.61;39.87;100774.00;4996186;28;20301;-67
2022/12/30 07:19:11;;;;;;;5.13;1.50;;;;;;;18.61;39.68;100775.78;4984671;28;20381;-66
2022/12/30 07:21:36;;;;;;;5.25;1.42;;;;;;;18.63;39.71;100776.53;4997222;28;20393;-67
2022/12/30 07:24:02;;;;;;;5.00;1.30;;;;;;;18.64;39.52;100780.81;4982569;28;20034;-67
2022/12/30 07:26:27;;;;;;;4.63;1.92;;;;;;;18.64;39.63;100778.16;4994560;28;20038;-71
2022/12/30 07:28:53;;;;;;;4.85;1.48;;;;;;;18.63;39.59;100768.59;4986143;28;20145;-66
2022/12/30 07:31:19;;;;;;;3.90;1.30;;;;;;;18.65;39.62;100764.03;4982409;28;20053;-67
2022/12/30 07:33:44;;;;;;;3.95;1.20;;;;;;;18.64;39.56;100760.56;4986376;28;20482;-65
2022/12/30 07:36:10;;;;;;;5.55;1.38;;;;;;;18.58;39.60;100747.00;5002279;28;20072;-67
2022/12/30 07:38:35;;;;;;;4.83;1.30;;;;;;;18.64;39.70;100752.63;5001828;28;20045;-66
2022/12/30 07:41:00;;;;;;;5.13;1.30;;;;;;;18.63;39.58;100747.47;4991029;28;20626;-68
2022/12/30 07:43:26;;;;;;;4.63;1.48;;;;;;;18.65;39.51;100742.91;4995458;28;20061;-66
2022/12/30 07:45:51;;;;;;;5.85;1.45;;;;;;;18.65;39.57;100734.97;4989836;28;20117;-67
2022/12/30 07:48:16;;;;;;;5.57;1.40;;;;;;;18.63;39.99;100726.38;4991544;28;20510;-67
2022/12/30 07:50:42;;;;;;;4.68;1.38;;;;;;;18.63;39.20;100724.56;4988512;28;20160;-67
2022/12/30 07:53:07;;;;;;;8.40;2.00;;;;;;;18.61;39.42;100718.59;4993560;28;20045;-68
2022/12/30 07:55:33;;;;;;;5.65;1.48;;;;;;;18.61;39.62;100712.44;4998181;28;20030;-67
2022/12/30 07:57:58;;;;;;;6.63;1.50;;;;;;;18.62;39.69;100701.75;4982773;28;20076;-67
2022/12/30 08:00:24;;;;;;;4.65;1.42;;;;;;;18.66;39.81;100702.34;4984397;28;20497;-68
2022/12/30 08:02:49;;;;;;;7.53;1.58;;;;;;;18.67;39.90;100710.16;4984653;28;20026;-67
2022/12/30 08:05:14;;;;;;;6.43;1.67;;;;;;;18.66;39.73;100697.91;4997036;28;20052;-67
2022/12/30 08:07:40;;;;;;;6.07;1.60;;;;;;;18.65;39.77;100687.47;4992506;28;20329;-69
2022/12/30 08:10:05;;;;;;;5.43;1.40;;;;;;;18.66;40.12;100689.97;4982180;28;20038;-67
2022/12/30 08:12:32;;;;;;;5.55;1.48;;;;;;;18.66;40.08;100681.25;4997469;28;20267;-69
2022/12/30 08:14:57;;;;;;;7.85;2.58;;;;;;;18.62;40.26;100678.00;4995026;28;20042;-68
2022/12/30 08:17:22;;;;;;;8.23;1.60;;;;;;;18.68;40.32;100685.41;4991758;28;20037;-71
2022/12/30 08:19:47;;;;;;;3.97;1.40;;;;;;;18.68;40.39;100674.84;4981624;28;20299;-71
2022/12/30 08:22:13;;;;;;;6.97;1.75;;;;;;;18.74;40.40;100677.91;4982492;28;20403;-68
2022/12/30 08:24:38;;;;;;;5.15;1.20;;;;;;;18.73;40.56;100669.16;4999679;28;20153;-69
2022/12/30 08:27:04;;;;;;;5.00;1.43;;;;;;;18.77;40.80;100675.88;5001192;28;20124;-70
2022/12/30 08:29:29;;;;;;;5.25;1.40;;;;;;;18.79;40.90;100675.72;5001072;28;20267;-67
2022/12/30 08:31:58;;;;;;;4.53;1.20;;;;;;;18.79;40.92;100681.00;4999630;28;20029;-72
2022/12/30 08:34:24;;;;;;;8.05;1.60;;;;;;;18.81;40.89;100668.50;4994623;28;20056;-68
2022/12/30 08:36:49;;;;;;;6.13;1.92;;;;;;;18.80;41.07;100654.47;4997077;28;20049;-69
2022/12/30 08:39:14;;;;;;;7.03;1.70;;;;;;;18.82;41.08;100657.81;4985969;28;20047;-68
2022/12/30 08:41:42;;;;;;;4.75;1.50;;;;;;;18.87;40.81;100667.16;5000993;28;20137;-69
2022/12/30 08:44:08;;;;;;;5.35;1.40;;;;;;;18.84;41.16;100645.34;4986951;28;20027;-67
2022/12/30 08:46:35;;;;;;;5.30;1.55;;;;;;;18.87;41.06;100651.31;4981885;28;20035;-68
2022/12/30 08:49:00;;;;;;;4.75;1.50;;;;;;;18.88;41.02;100637.16;4991694;28;20145;-69
2022/12/30 08:51:26;;;;;;;9.65;1.70;;;;;;;18.84;41.21;100634.78;5001526;28;20149;-69
2022/12/30 08:53:52;;;;;;;4.53;1.27;;;;;;;18.88;41.16;100631.88;4981486;28;20121;-68
2022/12/30 08:56:23;;;;;;;6.00;1.60;;;;;;;18.84;41.22;100626.03;4989315;28;20689;-69
2022/12/30 08:58:49;;;;;;;6.03;2.38;;;;;;;18.87;40.97;100623.13;4991480;28;20101;-69
2022/12/30 09:01:20;;;;;;;5.85;1.60;;;;;;;18.91;41.22;100628.97;4991297;28;20152;-68
2022/12/30 09:03:47;;;;;;;5.00;1.55;;;;;;;18.91;41.07;100610.47;4987553;28;20034;-69
2022/12/30 09:06:14;;;;;;;4.30;1.40;;;;;;;18.89;40.95;100605.31;4999665;28;20056;-69
2022/12/30 09:08:40;;;;;;;5.93;1.40;;;;;;;18.91;41.44;100605.19;4999295;28;20029;-69
2022/12/30 09:11:11;;;;;;;3.47;1.27;;;;;;;18.88;41.26;100595.72;4996927;28;20372;-68
2022/12/30 09:13:37;;;;;;;3.67;1.20;;;;;;;18.91;41.35;100594.63;5003771;28;20076;-67
2022/12/30 09:16:09;;;;;;;4.63;1.40;;;;;;;18.92;41.26;100589.22;4984848;28;20034;-69
2022/12/30 09:18:35;;;;;;;4.15;1.30;;;;;;;18.89;41.17;100576.28;4985719;28;20419;-69
2022/12/30 09:21:01;;;;;;;4.07;1.30;;;;;;;18.91;41.25;100581.44;4998891;28;20066;-69
2022/12/30 09:23:27;;;;;;;3.83;1.20;;;;;;;18.93;41.14;100587.41;4985052;28;20045;-70
2022/12/30 09:25:52;;;;;;;4.50;1.30;;;;;;;18.95;41.32;100588.94;4984814;28;20038;-69
2022/12/30 09:28:18;;;;;;;5.30;1.50;;;;;;;18.91;41.47;100579.59;4984934;28;20103;-68
2022/12/30 09:30:43;;;;;;;3.45;1.10;;;;;;;18.97;41.31;100591.44;4986127;28;20045;-68
2022/12/30 09:33:08;;;;;;;4.75;1.30;;;;;;;18.97;41.58;100579.06;5004384;28;20034;-68
2022/12/30 09:35:34;;;;;;;3.70;1.30;;;;;;;18.98;41.39;100577.28;4989517;28;20054;-68
2022/12/30 09:37:59;;;;;;;6.00;1.80;;;;;;;18.98;41.53;100569.38;4984924;28;20038;-69
2022/12/30 09:40:48;;;;;;;4.78;1.45;;;;;;;19.00;41.64;100567.41;4992912;28;20026;-71
2022/12/30 09:43:46;;;;;;;4.15;1.27;;;;;;;19.05;41.36;100567.00;4988131;28;20085;-72
2022/12/30 09:46:30;;;;;;;3.60;1.10;;;;;;;19.08;41.36;100564.09;4991697;28;20053;-72
2022/12/30 09:49:00;;;;;;;4.38;1.30;;;;;;;19.08;41.36;100553.53;4986915;28;20034;-71
2022/12/30 09:51:34;;;;;;;3.80;1.40;;;;;;;19.02;41.58;100541.69;4996713;28;20041;-69
2022/12/30 09:54:13;;;;;;;3.27;1.10;;;;;;;19.04;41.75;100534.44;4993521;28;20065;-69
2022/12/30 09:56:42;;;;;;;4.40;1.30;;;;;;;19.09;41.56;100545.47;4987359;28;20971;-68
2022/12/30 09:59:20;;;;;;;8.70;1.23;;;;;;;19.10;41.52;100525.16;4991638;28;20038;-68
2022/12/30 10:02:02;;;;;;;5.45;1.05;;;;;;;19.10;41.55;100525.16;4991193;28;20034;-66
2022/12/30 10:04:37;;;;;;;2.78;1.10;;;;;;;19.08;41.47;100519.19;4994132;28;20033;-69
2022/12/30 10:07:14;;;;;;;5.18;1.00;;;;;;;19.11;41.34;100516.28;4997313;28;20108;-67
2022/12/30 10:10:05;;;;;;;4.07;0.93;;;;;;;19.11;41.52;100503.06;4997760;28;20030;-68
2022/12/30 10:12:58;;;;;;;4.63;1.10;;;;;;;19.13;41.46;100514.31;4992153;28;20833;-70
2022/12/30 10:15:32;;;;;;;3.95;1.20;;;;;;;19.11;41.44;100503.88;4995568;28;20038;-69
2022/12/30 10:18:04;;;;;;;4.30;1.10;;;;;;;19.14;41.75;100494.88;4985461;28;20072;-68
2022/12/30 10:20:50;;;;;;;5.28;1.10;;;;;;;19.15;41.66;100478.88;4995024;28;20034;-68
2022/12/30 10:23:33;;;;;;;4.20;1.40;;;;;;;19.15;41.72;100460.38;4995391;28;20038;-68
2022/12/30 10:26:20;;;;;;;3.25;1.00;;;;;;;19.16;41.79;100459.38;5000077;28;20125;-70
2022/12/30 10:28:51;;;;;;;4.05;0.90;;;;;;;19.15;41.79;100446.31;4996292;28;20037;-68
2022/12/30 10:31:21;;;;;;;3.97;1.23;;;;;;;19.11;41.84;100437.84;4993268;28;20026;-68
2022/12/30 10:33:57;;;;;;;4.25;0.93;;;;;;;19.12;41.91;100439.53;4996869;28;20068;-68
2022/12/30 10:36:40;;;;;;;4.40;1.20;;;;;;;19.15;41.86;100427.84;4993350;28;20176;-68
2022/12/30 10:39:22;;;;;;;3.45;1.00;;;;;;;19.15;41.84;100423.41;4994004;28;20044;-70
2022/12/30 10:42:04;;;;;;;2.40;0.80;;;;;;;19.12;41.88;100396.41;4998848;28;20034;-67
2022/12/30 10:45:23;;;;;;;2.88;1.00;;;;;;;19.16;41.82;100408.38;4998384;28;20037;-68
2022/12/30 10:48:40;;;;;;;3.38;1.00;;;;;;;19.14;41.70;100392.66;4990682;28;20576;-67
2022/12/30 10:51:06;;;;;;;3.17;0.90;;;;;;;19.12;41.59;100377.94;4980837;28;20487;-68
2022/12/30 10:53:32;;;;;;;3.60;1.00;;;;;;;19.10;41.87;100382.53;4997303;28;20046;-66
2022/12/30 10:56:00;;;;;;;2.95;0.90;;;;;;;19.08;41.85;100374.75;5001357;28;20105;-68
2022/12/30 10:58:44;;;;;;;7.90;1.30;;;;;;;19.09;41.83;100359.72;4988789;28;20124;-68
2022/12/30 11:01:16;;;;;;;3.90;1.00;;;;;;;19.05;41.92;100342.50;4996636;28;20454;-68
2022/12/30 11:03:47;;;;;;;3.42;0.75;;;;;;;19.03;41.72;100332.09;4994215;28;20042;-68
2022/12/30 11:06:29;;;;;;;4.20;0.85;;;;;;;19.11;41.80;100347.22;4989072;28;20034;-68
2022/12/30 11:09:13;;;;;;;2.78;1.00;;;;;;;19.12;41.79;100327.75;4988306;28;20494;-67
2022/12/30 11:14:42;;;;;;;5.53;1.20;;;;;;;19.12;41.59;100307.47;4985062;28;20133;-70
2022/12/30 11:17:19;;;;;;;3.53;0.90;;;;;;;19.12;41.60;100296.91;5009793;28;20110;-71
2022/12/30 11:19:54;;;;;;;2.65;0.90;;;;;;;19.15;41.79;100304.53;4993553;28;20041;-70
2022/12/30 11:22:21;;;;;;;2.60;0.75;;;;;;;19.15;41.83;100293.97;4997077;28;20061;-69
2022/12/30 11:25:16;;;;;;;3.17;0.90;;;;;;;19.15;41.39;100282.56;4993242;28;20026;-68
2022/12/30 11:27:42;;;;;;;;;;;;;;;19.24;41.63;100273.75;4984540;28;20046;-65
2022/12/30 11:30:22;;;;;;;4.50;1.00;;;;;;;19.17;41.77;100262.13;4988086;28;19925;-65
2022/12/30 11:32:47;;;;;;;4.03;0.90;;;;;;;19.17;41.64;100239.19;4988155;28;20041;-68
2022/12/30 11:35:32;;;;;;;2.63;0.90;;;;;;;19.17;41.84;100222.50;4990098;28;20047;-67
2022/12/30 11:37:58;;;;;;;2.92;0.70;;;;;;;19.17;41.71;100215.41;4988050;28;20039;-70
2022/12/30 11:40:36;;;;;;;3.95;0.90;;;;;;;19.20;41.88;100206.34;4984043;28;20041;-67
2022/12/30 11:43:17;;;;;;;2.75;0.82;;;;;;;19.16;41.68;100199.72;4991996;28;20446;-67
2022/12/30 11:45:55;;;;;;;2.42;0.80;;;;;;;19.13;41.71;100189.44;4997057;28;20097;-69
2022/12/30 11:48:32;;;;;;;7.90;1.02;;;;;;;19.15;42.12;100188.31;4999513;28;20057;-67
2022/12/30 11:50:58;;;;;;;7.50;1.25;;;;;;;19.15;41.92;100177.75;4992441;28;20114;-70
2022/12/30 11:53:29;;;;;;;4.72;1.33;;;;;;;19.17;41.97;100161.75;4983285;28;20034;-68
2022/12/30 11:55:55;;;;;;;3.92;1.02;;;;;;;19.21;42.03;100165.75;4985202;28;20040;-71
2022/12/30 11:58:20;;;;;;;5.70;1.10;;;;;;;19.22;41.96;100141.00;4982847;28;20038;-70
2022/12/30 12:00:55;;;;;;;5.95;1.10;;;;;;;19.20;41.75;100132.38;4980642;28;20046;-71
2022/12/30 12:03:20;;;;;;;4.07;0.90;;;;;;;19.23;41.89;100126.81;4993143;28;20037;-70
2022/12/30 12:05:46;;;;;;;7.30;1.48;;;;;;;19.21;41.97;100132.22;4996194;28;20115;-68
2022/12/30 12:08:19;;;;;;;5.18;1.30;;;;;;;19.23;41.83;100125.97;4998428;28;20038;-68
2022/12/30 12:10:56;;;;;;;3.57;1.00;;;;;;;19.18;41.98;100113.22;4998574;28;20033;-70
2022/12/30 12:13:46;;;;;;;4.60;1.10;;;;;;;19.20;41.96;100111.25;4981877;28;20388;-64
2022/12/30 12:16:15;;;;;;;4.03;1.23;;;;;;;19.18;42.10;100108.78;4994990;28;20034;-70
2022/12/30 12:19:00;;;;;;;4.63;1.20;;;;;;;19.17;41.90;100112.41;4987042;28;20032;-67
2022/12/30 12:21:29;;;;;;;3.92;1.27;;;;;;;19.14;41.86;100085.47;4992545;28;20511;-69
2022/12/30 12:24:16;;;;;;;3.67;0.90;;;;;;;19.16;41.83;100084.31;4984796;28;20045;-65
2022/12/30 12:27:11;;;;;;;5.82;1.00;;;;;;;19.17;41.74;100075.41;4991283;28;20080;-69
2022/12/30 12:29:37;;;;;;;4.18;1.05;;;;;;;19.16;41.84;100071.09;4981304;28;20064;-68
2022/12/30 12:32:23;;;;;;;5.57;1.15;;;;;;;19.16;41.96;100060.53;4993828;28;20042;-68